createdAt,value
2022-12-01T00:00:06.120Z,3.5
2022-12-01T00:01:12.475Z,3.4
2022-12-01T00:02:18.854Z,3.5
2022-12-01T00:03:25.222Z,3.5
2022-12-01T00:04:31.592Z,3.5
2022-12-01T00:05:37.973Z,3.4
2022-12-01T00:06:44.350Z,3.5
2022-12-01T00:07:50.720Z,3.5
2022-12-01T00:08:57.102Z,3.5
2022-12-01T00:10:03.483Z,3.4
2022-12-01T00:11:09.864Z,3.5
2022-12-01T00:12:16.238Z,3.4
2022-12-01T00:13:22.603Z,3.5
2022-12-01T00:14:28.980Z,3.4
2022-12-01T00:15:35.361Z,3.5
2022-12-01T00:16:41.731Z,3.5
2022-12-01T00:17:48.116Z,3.5
2022-12-01T00:18:54.496Z,3.5
2022-12-01T00:20:00.867Z,3.5
2022-12-01T00:21:07.235Z,3.5
2022-12-01T00:22:13.622Z,3.5
2022-12-01T00:23:20.008Z,3.5
2022-12-01T00:24:26.384Z,3.5
2022-12-01T00:25:32.740Z,3.5
2022-12-01T00:26:39.137Z,3.4
2022-12-01T00:27:45.510Z,3.4
2022-12-01T00:28:51.882Z,3.4
2022-12-01T00:29:58.257Z,3.4
2022-12-01T00:31:04.627Z,3.4
2022-12-01T00:32:11.017Z,3.4
2022-12-01T00:33:17.384Z,3.4
2022-12-01T00:34:23.766Z,3.4
2022-12-01T00:35:30.138Z,3.4
2022-12-01T00:36:36.512Z,3.4
2022-12-01T00:37:42.888Z,3.4
2022-12-01T00:38:49.384Z,3.4
2022-12-01T00:39:55.648Z,3.4
2022-12-01T00:41:02.024Z,3.4
2022-12-01T00:42:08.396Z,3.4
2022-12-01T00:43:14.785Z,3.4
2022-12-01T00:44:21.194Z,3.4
2022-12-01T00:45:27.534Z,3.4
2022-12-01T00:46:33.916Z,3.4
2022-12-01T00:47:40.301Z,3.4
2022-12-01T00:48:46.678Z,3.4
2022-12-01T00:49:53.046Z,3.4
2022-12-01T00:50:59.526Z,3.4
2022-12-01T00:52:05.811Z,3.4
2022-12-01T00:53:12.181Z,3.4
2022-12-01T00:54:18.573Z,3.4
2022-12-01T00:55:24.950Z,3.4
2022-12-01T00:56:31.325Z,3.4
2022-12-01T00:57:37.709Z,3.4
2022-12-01T00:58:44.079Z,3.4
2022-12-01T00:59:50.471Z,3.4
2022-12-01T01:00:56.849Z,3.4
2022-12-01T01:02:03.211Z,3.4
2022-12-01T01:03:09.662Z,3.4
2022-12-01T01:04:15.963Z,3.4
2022-12-01T01:05:22.347Z,3.4
2022-12-01T01:06:28.730Z,3.4
2022-12-01T01:07:35.108Z,3.4
2022-12-01T01:08:41.532Z,3.4
2022-12-01T01:09:47.864Z,3.4
2022-12-01T01:10:54.233Z,3.4
2022-12-01T01:12:00.629Z,3.4
2022-12-01T01:13:06.984Z,3.4
2022-12-01T01:14:13.459Z,3.4
2022-12-01T01:15:19.808Z,3.4
2022-12-01T01:16:26.131Z,3.4
2022-12-01T01:17:32.511Z,3.4
2022-12-01T01:18:38.884Z,3.4
2022-12-01T01:19:45.247Z,3.4
2022-12-01T01:20:51.643Z,3.4
2022-12-01T01:21:58.019Z,3.4
2022-12-01T01:23:04.458Z,3.4
2022-12-01T01:24:10.768Z,3.4
2022-12-01T01:25:17.168Z,3.4
2022-12-01T01:26:23.530Z,3.4
2022-12-01T01:27:29.905Z,3.3
2022-12-01T01:28:36.278Z,3.4
2022-12-01T01:29:42.662Z,3.4
2022-12-01T01:30:49.044Z,3.4
2022-12-01T01:31:55.421Z,3.3
2022-12-01T01:33:01.797Z,3.4
2022-12-01T01:34:08.181Z,3.3
2022-12-01T01:35:14.591Z,3.3
2022-12-01T01:36:20.926Z,3.3
2022-12-01T01:37:27.297Z,3.3
2022-12-01T01:38:33.707Z,3.3
2022-12-01T01:39:40.085Z,3.4
2022-12-01T01:40:46.446Z,3.4
2022-12-01T01:41:52.799Z,3.4
2022-12-01T01:42:59.180Z,3.3
2022-12-01T01:44:05.620Z,3.3
2022-12-01T01:45:11.928Z,3.3
2022-12-01T01:46:18.303Z,3.3
2022-12-01T01:47:24.683Z,3.4
2022-12-01T01:48:31.048Z,3.3
2022-12-01T01:49:37.420Z,3.3
2022-12-01T01:50:43.810Z,3.3
2022-12-01T01:51:50.182Z,3.3
2022-12-01T01:52:56.588Z,3.3
2022-12-01T01:54:02.948Z,3.3
2022-12-01T01:55:09.319Z,3.3
2022-12-01T01:56:15.740Z,3.3
2022-12-01T01:57:22.090Z,3.3
2022-12-01T01:58:28.450Z,3.3
2022-12-01T01:59:34.824Z,3.3
2022-12-01T02:00:41.208Z,3.3
2022-12-01T02:01:47.581Z,3.3
2022-12-01T02:02:53.973Z,3.3
2022-12-01T02:04:00.335Z,3.3
2022-12-01T02:05:06.719Z,3.3
2022-12-01T02:06:13.096Z,3.3
2022-12-01T02:07:19.584Z,3.3
2022-12-01T02:08:25.844Z,3.3
2022-12-01T02:09:32.319Z,3.3
2022-12-01T02:10:38.611Z,3.3
2022-12-01T02:11:44.992Z,3.3
2022-12-01T02:12:51.362Z,3.3
2022-12-01T02:13:57.738Z,3.3
2022-12-01T02:15:04.129Z,3.3
2022-12-01T02:16:10.614Z,3.3
2022-12-01T02:17:16.876Z,3.3
2022-12-01T02:18:23.290Z,3.3
2022-12-01T02:20:36.008Z,3.3
2022-12-01T02:21:42.406Z,3.3
2022-12-01T02:22:48.764Z,3.3
2022-12-01T02:23:55.170Z,3.3
2022-12-01T02:25:01.521Z,3.3
2022-12-01T02:26:07.975Z,3.3
2022-12-01T02:27:14.271Z,3.3
2022-12-01T02:28:20.699Z,3.3
2022-12-01T02:29:27.043Z,3.3
2022-12-01T02:30:33.392Z,3.3
2022-12-01T02:31:39.763Z,3.3
2022-12-01T02:32:46.134Z,3.3
2022-12-01T02:33:52.526Z,3.3
2022-12-01T02:34:58.900Z,3.3
2022-12-01T02:36:05.264Z,3.3
2022-12-01T02:37:11.637Z,3.3
2022-12-01T02:38:18.024Z,3.2
2022-12-01T02:39:24.393Z,3.3
2022-12-01T02:40:30.768Z,3.3
2022-12-01T02:41:37.160Z,3.2
2022-12-01T02:42:43.527Z,3.2
2022-12-01T02:43:49.889Z,3.3
2022-12-01T02:44:56.263Z,3.2
2022-12-01T02:46:02.656Z,3.3
2022-12-01T02:47:09.139Z,3.2
2022-12-01T02:48:15.402Z,3.2
2022-12-01T02:49:21.795Z,3.2
2022-12-01T02:50:28.165Z,3.2
2022-12-01T02:51:34.606Z,3.2
2022-12-01T02:52:40.924Z,3.2
2022-12-01T02:53:47.297Z,3.2
2022-12-01T02:54:53.662Z,3.2
2022-12-01T02:56:00.103Z,3.2
2022-12-01T02:57:06.423Z,3.3
2022-12-01T02:58:12.797Z,3.2
2022-12-01T02:59:19.178Z,3.3
2022-12-01T03:00:25.542Z,3.2
2022-12-01T03:01:31.922Z,3.3
2022-12-01T03:02:38.308Z,3.2
2022-12-01T03:03:44.685Z,3.3
2022-12-01T03:04:51.054Z,3.3
2022-12-01T03:05:57.424Z,3.2
2022-12-01T03:07:03.799Z,3.2
2022-12-01T03:08:10.175Z,3.2
2022-12-01T03:09:16.556Z,3.3
2022-12-01T03:10:22.974Z,3.3
2022-12-01T03:11:29.281Z,3.2
2022-12-01T03:12:35.671Z,3.2
2022-12-01T03:13:42.050Z,3.2
2022-12-01T03:14:48.425Z,3.2
2022-12-01T03:15:54.804Z,3.2
2022-12-01T03:17:01.177Z,3.2
2022-12-01T03:18:07.566Z,3.2
2022-12-01T03:19:13.939Z,3.2
2022-12-01T03:20:20.310Z,3.2
2022-12-01T03:21:26.689Z,3.2
2022-12-01T03:22:33.059Z,3.2
2022-12-01T03:23:39.435Z,3.2
2022-12-01T03:24:45.827Z,3.2
2022-12-01T03:25:52.198Z,3.2
2022-12-01T03:26:58.573Z,3.2
2022-12-01T03:28:04.941Z,3.2
2022-12-01T03:29:11.348Z,3.2
2022-12-01T03:30:17.707Z,3.2
2022-12-01T03:31:24.100Z,3.2
2022-12-01T03:32:30.461Z,3.2
2022-12-01T03:33:36.845Z,3.2
2022-12-01T03:34:43.312Z,3.2
2022-12-01T03:35:49.644Z,3.2
2022-12-01T03:36:55.968Z,3.2
2022-12-01T03:38:02.346Z,3.2
2022-12-01T03:39:08.736Z,3.2
2022-12-01T03:40:15.111Z,3.2
2022-12-01T03:41:21.487Z,3.2
2022-12-01T03:43:34.232Z,3.2
2022-12-01T03:44:40.618Z,3.2
2022-12-01T03:45:47.123Z,3.2
2022-12-01T03:46:53.372Z,3.2
2022-12-01T03:47:59.757Z,3.2
2022-12-01T03:49:06.134Z,3.2
2022-12-01T03:50:12.511Z,3.2
2022-12-01T03:51:18.945Z,3.2
2022-12-01T03:52:25.264Z,3.2
2022-12-01T03:53:31.636Z,3.2
2022-12-01T03:54:38.044Z,3.2
2022-12-01T03:55:44.460Z,3.2
2022-12-01T03:56:50.781Z,3.2
2022-12-01T03:57:57.159Z,3.2
2022-12-01T03:59:03.531Z,3.2
2022-12-01T04:00:09.905Z,3.2
2022-12-01T04:01:16.285Z,3.2
2022-12-01T04:02:22.673Z,3.2
2022-12-01T04:03:29.040Z,3.2
2022-12-01T04:04:35.420Z,3.2
2022-12-01T04:05:41.862Z,3.2
2022-12-01T04:06:48.177Z,3.2
2022-12-01T04:07:54.555Z,3.2
2022-12-01T04:09:00.942Z,3.2
2022-12-01T04:10:07.327Z,3.2
2022-12-01T04:11:13.734Z,3.2
2022-12-01T04:12:20.070Z,3.2
2022-12-01T04:13:26.502Z,3.1
2022-12-01T04:14:32.818Z,3.2
2022-12-01T04:15:39.245Z,3.1
2022-12-01T04:16:45.568Z,3.2
2022-12-01T04:17:51.942Z,3.1
2022-12-01T04:18:58.323Z,3.1
2022-12-01T04:20:04.706Z,3.2
2022-12-01T04:21:11.191Z,3.2
2022-12-01T04:22:17.449Z,3.1
2022-12-01T04:23:23.817Z,3.2
2022-12-01T04:24:30.186Z,3.1
2022-12-01T04:25:36.580Z,3.1
2022-12-01T04:26:42.952Z,3.1
2022-12-01T04:27:49.321Z,3.1
2022-12-01T04:28:55.716Z,3.1
2022-12-01T04:30:02.076Z,3.1
2022-12-01T04:31:08.511Z,3.1
2022-12-01T04:32:14.841Z,3.1
2022-12-01T04:33:21.213Z,3.1
2022-12-01T04:34:27.589Z,3.1
2022-12-01T04:35:33.960Z,3.1
2022-12-01T04:36:40.424Z,3.1
2022-12-01T04:37:46.735Z,3.1
2022-12-01T04:38:53.115Z,3.1
2022-12-01T04:39:59.666Z,3.1
2022-12-01T04:41:05.852Z,3.2
2022-12-01T04:42:12.275Z,3.2
2022-12-01T04:43:18.626Z,3.1
2022-12-01T04:44:25.004Z,3.1
2022-12-01T04:45:31.357Z,3.1
2022-12-01T04:46:37.737Z,3.1
2022-12-01T04:47:44.112Z,3.2
2022-12-01T04:48:50.490Z,3.1
2022-12-01T04:49:56.880Z,3.2
2022-12-01T04:51:03.247Z,3.1
2022-12-01T04:52:09.618Z,3.2
2022-12-01T04:53:16.129Z,3.1
2022-12-01T04:54:22.372Z,3.1
2022-12-01T04:55:28.748Z,3.1
2022-12-01T04:56:35.129Z,3.1
2022-12-01T04:57:41.494Z,3.1
2022-12-01T04:58:47.871Z,3.1
2022-12-01T04:59:54.252Z,3.1
2022-12-01T05:01:00.638Z,3.1
2022-12-01T05:02:07.002Z,3.2
2022-12-01T05:03:13.375Z,3.1
2022-12-01T05:04:19.754Z,3.2
2022-12-01T05:05:26.142Z,3.1
2022-12-01T05:06:32.530Z,3.1
2022-12-01T05:07:38.887Z,3.1
2022-12-01T05:08:45.268Z,3.1
2022-12-01T05:09:51.643Z,3.1
2022-12-01T05:10:58.012Z,3.1
2022-12-01T05:12:04.399Z,3.1
2022-12-01T05:13:10.777Z,3.1
2022-12-01T05:14:17.150Z,3.1
2022-12-01T05:15:23.597Z,3.1
2022-12-01T05:16:29.913Z,3.1
2022-12-01T05:17:36.287Z,3.1
2022-12-01T05:18:42.673Z,3.2
2022-12-01T05:19:49.050Z,3.1
2022-12-01T05:20:55.414Z,3.1
2022-12-01T05:22:01.794Z,3.1
2022-12-01T05:23:08.160Z,3.1
2022-12-01T05:24:14.546Z,3.1
2022-12-01T05:25:20.924Z,3.1
2022-12-01T05:26:27.297Z,3.1
2022-12-01T05:27:33.677Z,3.1
2022-12-01T05:28:40.056Z,3.1
2022-12-01T05:29:46.431Z,3.1
2022-12-01T05:30:52.815Z,3.1
2022-12-01T05:31:59.257Z,3.1
2022-12-01T05:33:05.662Z,3.1
2022-12-01T05:34:11.965Z,3.1
2022-12-01T05:35:18.370Z,3.1
2022-12-01T05:36:24.813Z,3.1
2022-12-01T05:37:31.085Z,3.1
2022-12-01T05:38:37.481Z,3.1
2022-12-01T05:39:43.831Z,3.1
2022-12-01T05:40:50.222Z,3.1
2022-12-01T05:41:56.594Z,3.1
2022-12-01T05:43:02.975Z,3.1
2022-12-01T05:44:09.360Z,3.1
2022-12-01T05:45:15.728Z,3.1
2022-12-01T05:46:22.108Z,3.1
2022-12-01T05:47:28.485Z,3.1
2022-12-01T05:48:34.899Z,3.1
2022-12-01T05:49:41.454Z,3.1
2022-12-01T05:50:47.617Z,3.1
2022-12-01T05:51:54.002Z,3.1
2022-12-01T05:53:00.403Z,3.1
2022-12-01T05:54:06.761Z,3.1
2022-12-01T05:55:13.151Z,3.1
2022-12-01T05:56:19.587Z,3.1
2022-12-01T05:57:25.911Z,3.1
2022-12-01T05:58:32.278Z,3.1
2022-12-01T05:59:38.642Z,3.1
2022-12-01T06:00:45.073Z,3.1
2022-12-01T06:01:51.413Z,3.1
2022-12-01T06:02:57.796Z,3.1
2022-12-01T06:04:04.177Z,3.1
2022-12-01T06:05:10.556Z,3.1
2022-12-01T06:06:16.923Z,3.1
2022-12-01T06:07:23.308Z,3.1
2022-12-01T06:08:29.729Z,3.1
2022-12-01T06:09:36.066Z,3.1
2022-12-01T06:10:42.450Z,3.1
2022-12-01T06:11:48.814Z,3.1
2022-12-01T06:12:55.198Z,3.1
2022-12-01T06:14:01.643Z,3.1
2022-12-01T06:15:07.963Z,3.1
2022-12-01T06:16:14.334Z,3.1
2022-12-01T06:17:20.775Z,3.1
2022-12-01T06:18:27.093Z,3.1
2022-12-01T06:19:33.477Z,3.1
2022-12-01T06:20:39.903Z,3.1
2022-12-01T06:21:46.232Z,3.1
2022-12-01T06:22:52.609Z,3.1
2022-12-01T06:23:58.983Z,3.1
2022-12-01T06:25:05.371Z,3.1
2022-12-01T06:26:11.757Z,3.1
2022-12-01T06:27:18.117Z,3.1
2022-12-01T06:28:24.504Z,3.1
2022-12-01T06:29:30.874Z,3.1
2022-12-01T06:30:37.252Z,3.1
2022-12-01T06:31:43.641Z,3.1
2022-12-01T06:32:50.020Z,3.1
2022-12-01T06:33:56.402Z,3.1
2022-12-01T06:35:02.777Z,3.1
2022-12-01T06:36:09.155Z,3.1
2022-12-01T06:37:15.531Z,3.1
2022-12-01T06:38:21.968Z,3.1
2022-12-01T06:39:28.289Z,3.1
2022-12-01T06:40:34.694Z,3.1
2022-12-01T06:41:41.072Z,3.1
2022-12-01T06:42:47.429Z,3.1
2022-12-01T06:43:53.814Z,3.1
2022-12-01T06:45:00.186Z,3.1
2022-12-01T06:46:06.557Z,3.1
2022-12-01T06:47:12.945Z,3.1
2022-12-01T06:48:19.339Z,3.1
2022-12-01T06:49:25.708Z,3.1
2022-12-01T06:50:32.180Z,3.1
2022-12-01T06:51:38.448Z,3.1
2022-12-01T06:52:44.938Z,3.1
2022-12-01T06:53:51.209Z,3.1
2022-12-01T06:54:57.593Z,3.1
2022-12-01T06:56:03.972Z,3.1
2022-12-01T06:57:10.467Z,3.1
2022-12-01T06:58:16.769Z,3.1
2022-12-01T06:59:23.117Z,3.1
2022-12-01T07:00:29.468Z,3.2
2022-12-01T07:01:35.975Z,3.1
2022-12-01T07:02:42.384Z,3.2
2022-12-01T07:03:48.704Z,3.2
2022-12-01T07:04:54.997Z,3.2
2022-12-01T07:06:01.366Z,3.2
2022-12-01T07:07:07.861Z,3.2
2022-12-01T07:08:14.133Z,3.2
2022-12-01T07:09:20.488Z,3.2
2022-12-01T07:10:27.011Z,3.2
2022-12-01T07:11:33.312Z,3.2
2022-12-01T07:12:39.622Z,3.2
2022-12-01T07:13:46.023Z,3.2
2022-12-01T07:14:52.427Z,3.2
2022-12-01T07:15:58.852Z,3.2
2022-12-01T07:17:05.133Z,3.2
2022-12-01T07:18:11.624Z,3.2
2022-12-01T07:19:17.955Z,3.2
2022-12-01T07:20:24.327Z,3.3
2022-12-01T07:21:30.679Z,3.3
2022-12-01T07:22:37.009Z,3.3
2022-12-01T07:23:43.436Z,3.3
2022-12-01T07:24:49.816Z,3.3
2022-12-01T07:25:56.229Z,3.3
2022-12-01T07:27:02.545Z,3.3
2022-12-01T07:28:08.915Z,3.3
2022-12-01T07:29:15.324Z,3.3
2022-12-01T07:30:21.650Z,3.3
2022-12-01T07:31:28.075Z,3.4
2022-12-01T07:32:34.425Z,3.4
2022-12-01T07:33:40.921Z,3.4
2022-12-01T07:34:47.292Z,3.4
2022-12-01T07:35:53.547Z,3.4
2022-12-01T07:37:00.089Z,3.4
2022-12-01T07:38:06.332Z,3.4
2022-12-01T07:39:12.677Z,3.4
2022-12-01T07:40:19.255Z,3.4
2022-12-01T07:41:25.578Z,3.4
2022-12-01T07:42:31.806Z,3.4
2022-12-01T07:43:38.234Z,3.4
2022-12-01T07:44:44.574Z,3.4
2022-12-01T07:45:50.942Z,3.4
2022-12-01T07:46:57.326Z,3.4
2022-12-01T07:48:03.697Z,3.4
2022-12-01T07:49:10.154Z,3.5
2022-12-01T07:50:16.661Z,3.4
2022-12-01T07:51:23.322Z,3.5
2022-12-01T07:52:29.318Z,3.5
2022-12-01T07:53:35.605Z,3.5
2022-12-01T07:54:41.972Z,3.5
2022-12-01T07:55:48.403Z,3.5
2022-12-01T07:56:54.777Z,3.5
2022-12-01T07:58:01.096Z,3.5
2022-12-01T07:59:07.611Z,3.6
2022-12-01T08:00:13.911Z,3.6
2022-12-01T08:01:20.267Z,3.6
2022-12-01T08:02:26.761Z,3.6
2022-12-01T08:03:33.185Z,3.6
2022-12-01T08:04:39.432Z,3.6
2022-12-01T08:05:45.785Z,3.6
2022-12-01T08:06:52.249Z,3.7
2022-12-01T08:07:58.498Z,3.7
2022-12-01T08:09:04.881Z,3.7
2022-12-01T08:10:11.397Z,3.7
2022-12-01T08:11:17.737Z,3.8
2022-12-01T08:12:24.063Z,3.8
2022-12-01T08:13:30.413Z,3.8
2022-12-01T08:14:36.758Z,3.8
2022-12-01T08:15:43.168Z,3.8
2022-12-01T08:16:49.555Z,3.8
2022-12-01T08:17:55.952Z,3.8
2022-12-01T08:19:02.383Z,3.8
2022-12-01T08:20:08.676Z,3.9
2022-12-01T08:21:15.127Z,3.9
2022-12-01T08:22:21.392Z,3.9
2022-12-01T08:23:27.816Z,3.9
2022-12-01T08:24:34.256Z,3.9
2022-12-01T08:25:40.512Z,4
2022-12-01T08:26:46.888Z,4
2022-12-01T08:27:53.263Z,4
2022-12-01T08:28:59.735Z,4
2022-12-01T08:30:06.165Z,4.1
2022-12-01T08:31:12.386Z,4.1
2022-12-01T08:32:18.784Z,4.1
2022-12-01T08:33:25.221Z,4.1
2022-12-01T08:34:31.657Z,4.1
2022-12-01T08:35:37.908Z,4.2
2022-12-01T08:36:44.323Z,4.2
2022-12-01T08:37:50.667Z,4.2
2022-12-01T08:38:57.115Z,4.3
2022-12-01T08:40:03.501Z,4.3
2022-12-01T08:41:09.847Z,4.4
2022-12-01T08:42:16.180Z,4.4
2022-12-01T08:43:22.753Z,4.4
2022-12-01T08:44:28.932Z,4.5
2022-12-01T08:45:35.326Z,4.5
2022-12-01T08:46:41.677Z,4.5
2022-12-01T08:47:48.111Z,4.6
2022-12-01T08:48:54.471Z,4.6
2022-12-01T08:50:00.865Z,4.6
2022-12-01T08:51:07.244Z,4.6
2022-12-01T08:52:13.679Z,4.6
2022-12-01T08:53:20.052Z,4.6
2022-12-01T08:54:26.361Z,4.6
2022-12-01T08:55:32.707Z,4.6
2022-12-01T08:56:39.189Z,4.6
2022-12-01T08:57:45.587Z,4.6
2022-12-01T08:58:51.899Z,4.7
2022-12-01T08:59:58.359Z,4.7
2022-12-01T09:01:04.674Z,4.7
2022-12-01T09:02:11.092Z,4.7
2022-12-01T09:03:17.360Z,4.7
2022-12-01T09:04:23.787Z,4.7
2022-12-01T09:05:30.162Z,4.7
2022-12-01T09:06:36.495Z,4.7
2022-12-01T09:07:42.888Z,4.7
2022-12-01T09:08:49.319Z,4.7
2022-12-01T09:09:55.630Z,4.6
2022-12-01T09:11:02.036Z,4.6
2022-12-01T09:12:08.552Z,4.6
2022-12-01T09:13:14.752Z,4.6
2022-12-01T09:14:21.184Z,4.6
2022-12-01T09:15:27.584Z,4.7
2022-12-01T09:16:33.911Z,4.7
2022-12-01T09:17:40.267Z,4.7
2022-12-01T09:18:46.634Z,4.7
2022-12-01T09:19:53.128Z,4.7
2022-12-01T09:20:59.396Z,4.7
2022-12-01T09:22:05.823Z,4.7
2022-12-01T09:23:12.148Z,4.6
2022-12-01T09:24:18.560Z,4.6
2022-12-01T09:25:24.936Z,4.6
2022-12-01T09:26:31.343Z,4.6
2022-12-01T09:27:37.698Z,4.6
2022-12-01T09:28:44.042Z,4.6
2022-12-01T09:29:50.539Z,4.6
2022-12-01T09:30:56.825Z,4.7
2022-12-01T09:32:03.168Z,4.7
2022-12-01T09:33:09.538Z,4.7
2022-12-01T09:34:15.978Z,4.6
2022-12-01T09:35:22.296Z,4.6
2022-12-01T09:36:28.680Z,4.6
2022-12-01T09:37:35.054Z,4.6
2022-12-01T09:38:41.429Z,4.6
2022-12-01T09:39:47.841Z,4.6
2022-12-01T09:40:54.244Z,4.6
2022-12-01T09:42:00.574Z,4.7
2022-12-01T09:43:07.002Z,4.7
2022-12-01T09:44:13.329Z,4.7
2022-12-01T09:45:19.684Z,4.6
2022-12-01T09:46:26.066Z,4.7
2022-12-01T09:47:32.465Z,4.7
2022-12-01T09:48:38.813Z,4.7
2022-12-01T09:49:45.285Z,4.7
2022-12-01T09:50:51.581Z,4.7
2022-12-01T09:51:57.949Z,4.7
2022-12-01T09:53:04.415Z,4.7
2022-12-01T09:54:10.720Z,4.7
2022-12-01T09:55:17.090Z,4.7
2022-12-01T09:56:23.481Z,4.7
2022-12-01T09:57:29.886Z,4.7
2022-12-01T09:58:36.219Z,4.7
2022-12-01T09:59:42.596Z,4.7
2022-12-01T10:00:48.977Z,4.6
2022-12-01T10:01:55.468Z,4.7
2022-12-01T10:03:01.728Z,4.7
2022-12-01T10:04:08.111Z,4.7
2022-12-01T10:05:14.489Z,4.7
2022-12-01T10:06:20.870Z,4.7
2022-12-01T10:07:27.279Z,4.7
2022-12-01T10:08:33.719Z,4.7
2022-12-01T10:09:39.989Z,4.7
2022-12-01T10:10:46.397Z,4.7
2022-12-01T10:11:52.764Z,4.7
2022-12-01T10:12:59.143Z,4.7
2022-12-01T10:14:05.545Z,4.7
2022-12-01T10:15:11.882Z,4.8
2022-12-01T10:16:18.358Z,4.8
2022-12-01T10:17:24.750Z,4.8
2022-12-01T10:18:31.025Z,4.8
2022-12-01T10:19:37.391Z,4.8
2022-12-01T10:20:43.783Z,4.8
2022-12-01T10:21:50.229Z,4.8
2022-12-01T10:22:56.591Z,4.9
2022-12-01T10:24:02.914Z,4.9
2022-12-01T10:25:09.305Z,4.9
2022-12-01T10:26:15.675Z,4.9
2022-12-01T10:27:22.073Z,4.9
2022-12-01T10:28:28.439Z,5
2022-12-01T10:29:34.798Z,5
2022-12-01T10:30:41.236Z,5
2022-12-01T10:31:47.596Z,5
2022-12-01T10:32:53.994Z,5
2022-12-01T10:34:00.285Z,5
2022-12-01T10:35:06.684Z,5
2022-12-01T10:36:13.101Z,5
2022-12-01T10:37:19.529Z,5
2022-12-01T10:38:25.929Z,5
2022-12-01T10:39:32.196Z,5
2022-12-01T10:40:38.568Z,5
2022-12-01T10:41:45.072Z,5.1
2022-12-01T10:42:51.262Z,5.1
2022-12-01T10:43:57.788Z,5.1
2022-12-01T10:45:04.036Z,5.1
2022-12-01T10:46:10.406Z,5.1
2022-12-01T10:48:23.284Z,5.1
2022-12-01T10:49:29.616Z,5.1
2022-12-01T10:50:35.971Z,5.2
2022-12-01T10:51:42.277Z,5.2
2022-12-01T10:52:48.798Z,5.2
2022-12-01T10:53:55.143Z,5.2
2022-12-01T10:55:01.560Z,5.1
2022-12-01T10:56:07.868Z,5.1
2022-12-01T10:57:14.298Z,5.1
2022-12-01T10:58:20.646Z,5.1
2022-12-01T10:59:26.920Z,5.2
2022-12-01T11:00:33.347Z,5.1
2022-12-01T11:01:39.765Z,5.2
2022-12-01T11:02:46.060Z,5.2
2022-12-01T11:03:52.581Z,5.2
2022-12-01T11:04:58.803Z,5.2
2022-12-01T11:06:05.204Z,5.1
2022-12-01T11:07:11.648Z,5.1
2022-12-01T11:08:17.931Z,5.1
2022-12-01T11:09:24.462Z,5.2
2022-12-01T11:10:30.749Z,5.2
2022-12-01T11:11:37.114Z,5.2
2022-12-01T11:13:49.972Z,5.2
2022-12-01T11:14:56.300Z,5.2
2022-12-01T11:16:02.744Z,5.2
2022-12-01T11:17:08.968Z,5.2
2022-12-01T11:18:15.474Z,5.2
2022-12-01T11:19:21.877Z,5.2
2022-12-01T11:20:28.171Z,5.2
2022-12-01T11:21:34.565Z,5.2
2022-12-01T11:22:40.826Z,5.2
2022-12-01T11:23:47.365Z,5.1
2022-12-01T11:24:53.809Z,5.1
2022-12-01T11:26:00.091Z,5.1
2022-12-01T11:27:06.496Z,5.1
2022-12-01T11:28:12.878Z,5.2
2022-12-01T11:29:19.217Z,5.2
2022-12-01T11:30:25.615Z,5.2
2022-12-01T11:31:32.026Z,5.2
2022-12-01T11:32:38.406Z,5.2
2022-12-01T11:33:44.744Z,5.2
2022-12-01T11:34:51.143Z,5.2
2022-12-01T11:35:57.542Z,5.2
2022-12-01T11:37:03.920Z,5.3
2022-12-01T11:38:10.267Z,5.3
2022-12-01T11:39:16.486Z,5.3
2022-12-01T11:40:22.966Z,5.3
2022-12-01T11:41:29.408Z,5.3
2022-12-01T11:42:35.779Z,5.3
2022-12-01T11:43:42.100Z,5.3
2022-12-01T11:44:48.481Z,5.3
2022-12-01T11:45:54.797Z,5.3
2022-12-01T11:47:01.259Z,5.3
2022-12-01T11:48:07.687Z,5.3
2022-12-01T11:49:14.027Z,5.3
2022-12-01T11:50:20.242Z,5.3
2022-12-01T11:51:26.841Z,5.3
2022-12-01T11:52:33.176Z,5.3
2022-12-01T11:53:39.586Z,5.3
2022-12-01T11:54:45.922Z,5.3
2022-12-01T11:55:52.339Z,5.3
2022-12-01T11:56:58.701Z,5.3
2022-12-01T11:58:05.065Z,5.3
2022-12-01T11:59:11.437Z,5.3
2022-12-01T12:00:17.673Z,5.3
2022-12-01T12:01:24.140Z,5.3
2022-12-01T12:02:30.559Z,5.3
2022-12-01T12:03:36.950Z,5.3
2022-12-01T12:04:43.362Z,5.3
2022-12-01T12:05:49.704Z,5.3
2022-12-01T12:06:56.039Z,5.3
2022-12-01T12:08:02.507Z,5.2
2022-12-01T12:09:08.869Z,5.2
2022-12-01T12:10:15.042Z,5.2
2022-12-01T12:11:21.625Z,5.2
2022-12-01T12:12:27.789Z,5.2
2022-12-01T12:13:34.388Z,5.2
2022-12-01T12:14:40.736Z,5.2
2022-12-01T12:15:47.037Z,5.2
2022-12-01T12:16:53.481Z,5.2
2022-12-01T12:17:59.673Z,5.2
2022-12-01T12:19:06.248Z,5.2
2022-12-01T12:20:12.434Z,5.2
2022-12-01T12:21:18.805Z,5.2
2022-12-01T12:22:25.245Z,5.2
2022-12-01T12:23:31.661Z,5.2
2022-12-01T12:24:38.121Z,5.2
2022-12-01T12:25:44.418Z,5.2
2022-12-01T12:26:50.831Z,5.2
2022-12-01T12:27:57.243Z,5.2
2022-12-01T12:29:03.450Z,5.2
2022-12-01T12:30:09.884Z,5.2
2022-12-01T12:31:16.316Z,5.2
2022-12-01T12:32:22.736Z,5.2
2022-12-01T12:33:29.147Z,5.2
2022-12-01T12:34:35.463Z,5.2
2022-12-01T12:35:41.826Z,5.2
2022-12-01T12:36:48.234Z,5.2
2022-12-01T12:37:54.583Z,5.2
2022-12-01T12:39:00.904Z,5.2
2022-12-01T12:40:07.409Z,5.1
2022-12-01T12:41:13.746Z,5.1
2022-12-01T12:42:20.128Z,5.1
2022-12-01T12:43:26.492Z,5.1
2022-12-01T12:44:32.878Z,5.1
2022-12-01T12:45:39.282Z,5.1
2022-12-01T12:46:45.703Z,5.1
2022-12-01T12:47:51.916Z,5.1
2022-12-01T12:48:58.368Z,5.1
2022-12-01T12:50:04.748Z,5.1
2022-12-01T12:51:11.147Z,5.1
2022-12-01T12:52:17.524Z,5.1
2022-12-01T12:53:23.897Z,5.1
2022-12-01T12:54:30.303Z,5.1
2022-12-01T12:55:36.687Z,5
2022-12-01T12:56:43.038Z,5.1
2022-12-01T12:57:49.413Z,5.1
2022-12-01T12:58:55.642Z,5.1
2022-12-01T13:00:02.171Z,5.1
2022-12-01T13:01:08.564Z,5.1
2022-12-01T13:02:14.825Z,5.1
2022-12-01T13:03:21.274Z,5
2022-12-01T13:04:27.654Z,5
2022-12-01T13:05:34.001Z,5
2022-12-01T13:06:40.445Z,5
2022-12-01T13:07:46.678Z,5
2022-12-01T13:08:53.006Z,5
2022-12-01T13:09:59.536Z,5
2022-12-01T13:11:05.923Z,5
2022-12-01T13:12:12.229Z,5
2022-12-01T13:13:18.503Z,5
2022-12-01T13:14:24.950Z,5.1
2022-12-01T13:15:31.390Z,5
2022-12-01T13:16:37.675Z,5
2022-12-01T13:17:44.074Z,5
2022-12-01T13:18:50.503Z,5.1
2022-12-01T13:19:56.806Z,5
2022-12-01T13:21:03.209Z,5
2022-12-01T13:22:09.644Z,5
2022-12-01T13:23:15.892Z,5
2022-12-01T13:24:22.370Z,5
2022-12-01T13:25:28.757Z,5
2022-12-01T13:26:35.015Z,5
2022-12-01T13:27:41.523Z,5
2022-12-01T13:28:47.764Z,5
2022-12-01T13:29:54.117Z,5
2022-12-01T13:31:00.558Z,5
2022-12-01T13:32:06.939Z,5
2022-12-01T13:33:13.330Z,5
2022-12-01T13:34:19.738Z,5
2022-12-01T13:35:26.108Z,5
2022-12-01T13:36:32.425Z,5
2022-12-01T13:37:38.832Z,5
2022-12-01T13:38:45.098Z,5
2022-12-01T13:39:51.479Z,5
2022-12-01T13:40:57.859Z,5
2022-12-01T13:42:04.460Z,4.9
2022-12-01T13:43:10.799Z,4.9
2022-12-01T13:44:17.079Z,4.9
2022-12-01T13:45:23.521Z,4.9
2022-12-01T13:46:29.936Z,4.9
2022-12-01T13:47:36.240Z,4.9
2022-12-01T13:48:42.725Z,4.9
2022-12-01T13:49:49.062Z,4.9
2022-12-01T13:50:55.247Z,4.8
2022-12-01T13:53:08.182Z,4.8
2022-12-01T13:54:14.571Z,4.8
2022-12-01T13:55:20.975Z,4.8
2022-12-01T13:56:27.332Z,4.8
2022-12-01T13:57:33.701Z,4.8
2022-12-01T13:58:40.027Z,4.8
2022-12-01T13:59:46.406Z,4.8
2022-12-01T14:00:52.823Z,4.8
2022-12-01T14:01:59.220Z,4.7
2022-12-01T14:03:05.409Z,4.7
2022-12-01T14:04:12.055Z,4.7
2022-12-01T14:05:18.354Z,4.7
2022-12-01T14:06:24.741Z,4.7
2022-12-01T14:07:30.910Z,4.7
2022-12-01T14:08:37.310Z,4.7
2022-12-01T14:09:43.683Z,4.7
2022-12-01T14:11:56.587Z,4.7
2022-12-01T14:13:02.861Z,4.6
2022-12-01T14:14:09.246Z,4.6
2022-12-01T14:15:15.565Z,4.6
2022-12-01T14:16:22.059Z,4.6
2022-12-01T14:17:28.486Z,4.6
2022-12-01T14:18:34.704Z,4.6
2022-12-01T14:19:41.093Z,4.6
2022-12-01T14:20:47.466Z,4.6
2022-12-01T14:21:53.842Z,4.5
2022-12-01T14:23:00.220Z,4.5
2022-12-01T14:24:06.606Z,4.5
2022-12-01T14:25:12.998Z,4.5
2022-12-01T14:26:19.390Z,4.5
2022-12-01T14:27:25.721Z,4.5
2022-12-01T14:28:32.097Z,4.5
2022-12-01T14:29:38.483Z,4.5
2022-12-01T14:30:44.857Z,4.5
2022-12-01T14:31:51.237Z,4.5
2022-12-01T14:32:57.617Z,4.5
2022-12-01T14:34:03.996Z,4.5
2022-12-01T14:35:10.468Z,4.5
2022-12-01T14:36:16.744Z,4.5
2022-12-01T14:37:23.152Z,4.4
2022-12-01T14:38:29.501Z,4.4
2022-12-01T14:39:35.871Z,4.4
2022-12-01T14:40:42.246Z,4.4
2022-12-01T14:41:48.629Z,4.4
2022-12-01T14:42:55.016Z,4.4
2022-12-01T14:44:01.415Z,4.4
2022-12-01T14:45:07.770Z,4.4
2022-12-01T14:46:14.141Z,4.4
2022-12-01T14:47:20.536Z,4.4
2022-12-01T14:48:26.898Z,4.4
2022-12-01T14:49:33.274Z,4.4
2022-12-01T14:50:39.654Z,4.3
2022-12-01T14:51:46.030Z,4.3
2022-12-01T14:52:52.404Z,4.3
2022-12-01T14:53:58.795Z,4.3
2022-12-01T14:55:05.171Z,4.3
2022-12-01T14:56:11.542Z,4.3
2022-12-01T14:57:17.944Z,4.3
2022-12-01T14:58:24.296Z,4.3
2022-12-01T14:59:30.671Z,4.3
2022-12-01T15:00:37.051Z,4.3
2022-12-01T15:01:43.431Z,4.3
2022-12-01T15:02:49.816Z,4.3
2022-12-01T15:03:56.180Z,4.3
2022-12-01T15:05:02.567Z,4.3
2022-12-01T15:06:08.965Z,4.2
2022-12-01T15:07:15.324Z,4.2
2022-12-01T15:08:21.709Z,4.2
2022-12-01T15:09:28.069Z,4.2
2022-12-01T15:10:34.442Z,4.2
2022-12-01T15:11:40.847Z,4.2
2022-12-01T15:12:47.229Z,4.2
2022-12-01T15:13:53.663Z,4.2
2022-12-01T15:14:59.959Z,4.2
2022-12-01T15:16:06.346Z,4.2
2022-12-01T15:17:12.720Z,4.2
2022-12-01T15:18:19.207Z,4.1
2022-12-01T15:19:25.486Z,4.1
2022-12-01T15:20:31.864Z,4.1
2022-12-01T15:21:38.240Z,4.1
2022-12-01T15:22:44.612Z,4.1
2022-12-01T15:23:51.000Z,4.1